Share

Mobridge, SD

NCSD Skywarn (KSDMOBRI2) Elev 1677 ft | 45.54 °N, 100.44 °W | Change Station

Current weather conditions updated 5 seconds ago

Clear
Clear
38.3 °F
Feels Like 38 °F
N
0.7
Wind Variable Wind from North
Gusts 1.6 mph
Sunrise 6:45 AM
Sunset 8:35 PM
Moon Waning Gibbous

Today is forecast to be Much Cooler than yesterday.

Pressure 30.11 in
Visibility 10.0 miles
Clouds Clear
Windchill 38 °F
Dew Point 26 °F
Humidity 62%
Rainfall 0.00 in
Snow Depth Not available.
UV 0.0 out of 16
Pollen 11.20 out of 12
Air Quality Not available.
Flu Activity Sporadic
METAR KPIR 211053Z AUTO 31012KT 10SM CLR 05/M03 A3011 RMK AO2 SLP194 T00501028

More Conditions Fewer Conditions

Pressure 30.11 in
Visibility 10.0 miles
Clouds Clear
Windchill 38 °F
Dew Point 26 °F
Humidity 62%
Rainfall 0.00 in
Snow Depth Not available.
UV 0.0 out of 16
Pollen 11.20 out of 12
Air Quality Not available.
Flu Activity Sporadic
METAR KPIR 211053Z AUTO 31012KT 10SM CLR 05/M03 A3011 RMK AO2 SLP194 T00501028

More Conditions Fewer Conditions

10-Day Weather Forecast

Almanac

Astronomy

Apr. 21, 2014 Rise Set
Actual Time 6:45 AM CDT 8:35 PM CDT
Civil Twilight 6:14 AM CDT 9:07 PM CDT
Nautical Twilight 5:35 AM CDT 9:46 PM CDT
Astronomical Twilight 4:53 AM CDT 10:28 PM CDT
Moon 2:11 AM CDT 12:10 PM CDT
Length of Visible Light 14h 53m
Length of Day
13h 50m
Tomorrow will be 2m 59s longer.
Waning Gibbous, 60% of the Moon is Illuminated
Today
Waning Gibbous
Apr 22
Last Quarter
Apr 29
New
May 6
First Quarter
May 14
Full

Today's Extremes

State Highs State Lows

Community

  • Snowy Robin
    Snowy Robin
  • Sun Pillar and Geese
    Sun Pillar and Geese
  • Showers on the Way
    Showers on the Way
  • Easter Morning Fog
    Easter Morning Fog
  • Easter Dance
    Easter Dance

WunderPhotos

Upload Photos

1,703,595 photos uploaded!

Nearby

Snow Depth

Station Depth Elevation
North Rapid Creek 17 in 6130 ft
Blind Park 18 in 6890 ft

Coastal Water Temperatures

Place Temperature
No Stations Reporting

Earthquake Activity

City Distance Mag. Time & Date
No recent earthquake activity has been reported nearby.
Minimum magnitude displayed is 2.5.

Nearby Weather Stations

Station Location Temp. Windchill Dew Point Humidity Wind Precip. Elev Updated Type
NCSD Skywarn, Mobridge, SD 38.3 °F 38 °F 26 °F 62% North  at  0.7 mph 0.00 in / hr 1677 ft 6:47 AM CDT Rapid Fire
HADS OAK CREEK NEAR WAKPALA SD, Wakpala, SD 36 °F 36 °F - - North  at  - 0.00 in / hr 1689 ft 4:45 AM MDT MADIS

Show More Stations Show Fewer Stations

What do you think?

We're not finished. Please let us know what you like, what you don't like, and what you are still missing.